createdAt,value
2023-05-14T00:00:38.336Z,4.10
2023-05-14T00:02:40.075Z,4.43
2023-05-14T00:04:41.780Z,4.45
2023-05-14T00:06:43.434Z,4.28
2023-05-14T00:08:45.213Z,4.55
2023-05-14T00:10:46.978Z,3.88
2023-05-14T00:12:48.729Z,4.53
2023-05-14T00:14:50.424Z,4.40
2023-05-14T00:16:52.052Z,4.28
2023-05-14T00:18:53.737Z,4.93
2023-05-14T00:20:55.391Z,4.07
2023-05-14T00:22:56.990Z,3.63
2023-05-14T00:24:58.742Z,4.22
2023-05-14T00:27:00.446Z,3.80
2023-05-14T00:29:02.034Z,4.40
2023-05-14T00:31:03.917Z,3.90
2023-05-14T00:33:06.360Z,4.25
2023-05-14T00:35:08.547Z,4.07
2023-05-14T00:37:10.291Z,3.88
2023-05-14T00:39:12.481Z,4.43
2023-05-14T00:41:14.189Z,4.43
2023-05-14T00:43:15.900Z,4.53
2023-05-14T00:45:17.574Z,4.13
2023-05-14T00:47:19.415Z,4.75
2023-05-14T00:49:21.383Z,4.20
2023-05-14T00:51:23.133Z,4.35
2023-05-14T00:53:24.762Z,4.25
2023-05-14T00:55:26.629Z,4.55
2023-05-14T00:57:28.519Z,4.60
2023-05-14T00:59:30.229Z,4.20
2023-05-14T01:01:32.098Z,4.13
2023-05-14T01:03:34.341Z,4.38
2023-05-14T01:06:07.074Z,4.55
2023-05-14T01:08:34.133Z,4.60
2023-05-14T01:11:26.370Z,4.10
2023-05-14T01:13:36.286Z,4.63
2023-05-14T01:15:39.882Z,4.45
2023-05-14T01:17:54.417Z,4.45
2023-05-14T01:19:56.723Z,4.50
2023-05-14T01:21:58.253Z,4.05
2023-05-14T01:23:59.944Z,4.50
2023-05-14T01:26:01.659Z,4.82
2023-05-14T01:28:29.660Z,4.72
2023-05-14T01:30:43.093Z,4.60
2023-05-14T01:32:47.641Z,4.57
2023-05-14T01:34:50.591Z,4.30
2023-05-14T01:36:53.554Z,4.45
2023-05-14T01:38:55.477Z,4.55
2023-05-14T01:40:57.569Z,4.60
2023-05-14T01:42:59.313Z,4.53
2023-05-14T01:45:01.074Z,4.40
2023-05-14T01:47:03.479Z,4.65
2023-05-14T01:49:05.173Z,4.65
2023-05-14T01:51:06.827Z,4.40
2023-05-14T01:53:08.490Z,4.10
2023-05-14T01:55:10.793Z,5.32
2023-05-14T01:57:12.487Z,4.63
2023-05-14T01:59:14.167Z,5.00
2023-05-14T02:01:16.208Z,4.93
2023-05-14T02:03:18.031Z,5.40
2023-05-14T02:05:19.783Z,4.65
2023-05-14T02:07:21.475Z,5.03
2023-05-14T02:09:23.167Z,5.03
2023-05-14T02:11:24.800Z,4.82
2023-05-14T02:13:26.810Z,4.90
2023-05-14T02:15:28.400Z,5.10
2023-05-14T02:17:30.113Z,5.40
2023-05-14T02:19:31.697Z,5.40
2023-05-14T02:21:33.280Z,5.60
2023-05-14T02:23:41.447Z,5.30
2023-05-14T02:25:44.482Z,5.57
2023-05-14T02:27:46.127Z,5.03
2023-05-14T02:29:47.950Z,4.90
2023-05-14T02:31:49.650Z,5.13
2023-05-14T02:33:51.394Z,4.95
2023-05-14T02:35:53.201Z,4.70
2023-05-14T02:37:54.844Z,5.13
2023-05-14T02:39:56.425Z,5.57
2023-05-14T02:41:58.058Z,5.13
2023-05-14T02:43:59.724Z,4.95
2023-05-14T02:46:01.429Z,5.43
2023-05-14T02:48:03.136Z,5.07
2023-05-14T02:50:06.433Z,5.13
2023-05-14T02:52:08.017Z,5.25
2023-05-14T02:54:09.635Z,4.88
2023-05-14T02:56:11.297Z,5.68
2023-05-14T02:58:12.829Z,5.28
2023-05-14T03:00:14.631Z,5.40
2023-05-14T03:02:16.539Z,5.18
2023-05-14T03:04:18.674Z,5.10
2023-05-14T03:06:20.394Z,5.40
2023-05-14T03:08:22.022Z,5.00
2023-05-14T03:10:23.838Z,5.00
2023-05-14T03:12:25.690Z,5.50
2023-05-14T03:14:27.284Z,5.57
2023-05-14T03:16:29.090Z,5.18
2023-05-14T03:18:30.772Z,5.55
2023-05-14T03:20:32.377Z,5.30
2023-05-14T03:22:34.081Z,5.00
2023-05-14T03:24:38.685Z,5.22
2023-05-14T03:26:40.330Z,5.45
2023-05-14T03:28:41.841Z,5.63
2023-05-14T03:30:43.530Z,5.15
2023-05-14T03:32:45.394Z,5.30
2023-05-14T03:34:47.053Z,4.95
2023-05-14T03:36:48.785Z,5.47
2023-05-14T03:38:50.407Z,5.35
2023-05-14T03:40:52.090Z,5.68
2023-05-14T03:42:53.978Z,5.78
2023-05-14T03:44:55.547Z,5.53
2023-05-14T03:46:57.241Z,5.35
2023-05-14T03:48:58.880Z,5.63
2023-05-14T03:51:00.541Z,5.60
2023-05-14T03:53:02.466Z,5.28
2023-05-14T03:55:04.261Z,5.97
2023-05-14T03:57:05.913Z,5.47
2023-05-14T03:59:07.498Z,5.72
2023-05-14T04:01:09.134Z,5.40
2023-05-14T04:03:11.100Z,5.65
2023-05-14T04:05:13.085Z,5.60
2023-05-14T04:07:14.644Z,5.38
2023-05-14T04:09:16.291Z,5.80
2023-05-14T04:11:18.132Z,5.60
2023-05-14T04:13:19.755Z,5.82
2023-05-14T04:15:21.444Z,5.93
2023-05-14T04:17:23.132Z,6.00
2023-05-14T04:19:24.916Z,5.57
2023-05-14T04:21:26.494Z,5.85
2023-05-14T04:23:28.441Z,5.95
2023-05-14T04:25:30.451Z,5.93
2023-05-14T04:27:33.414Z,5.53
2023-05-14T04:29:35.142Z,5.63
2023-05-14T04:31:36.816Z,5.70
2023-05-14T04:33:38.577Z,5.70
2023-05-14T04:35:40.185Z,5.70
2023-05-14T04:37:42.055Z,5.75
2023-05-14T04:39:43.735Z,5.80
2023-05-14T04:41:45.492Z,5.65
2023-05-14T04:43:49.290Z,6.10
2023-05-14T04:45:52.342Z,6.45
2023-05-14T04:47:54.154Z,6.40
2023-05-14T04:49:55.898Z,6.10
2023-05-14T04:51:57.455Z,6.22
2023-05-14T04:53:59.148Z,6.28
2023-05-14T04:56:00.870Z,5.75
2023-05-14T04:58:03.312Z,6.05
2023-05-14T05:00:06.047Z,6.20
2023-05-14T05:02:07.727Z,6.07
2023-05-14T05:04:09.322Z,5.82
2023-05-14T05:06:11.232Z,6.00
2023-05-14T05:08:12.917Z,5.88
2023-05-14T05:10:17.395Z,6.38
2023-05-14T05:12:19.194Z,5.95
2023-05-14T05:14:20.850Z,6.22
2023-05-14T05:16:22.801Z,5.80
2023-05-14T05:18:24.488Z,6.65
2023-05-14T05:20:28.050Z,6.45
2023-05-14T05:22:29.643Z,6.00
2023-05-14T05:24:31.274Z,6.07
2023-05-14T05:26:32.882Z,6.47
2023-05-14T05:28:34.724Z,6.75
2023-05-14T05:30:36.470Z,6.50
2023-05-14T05:32:38.206Z,6.32
2023-05-14T05:34:39.815Z,6.07
2023-05-14T05:36:41.450Z,6.18
2023-05-14T05:38:43.001Z,6.32
2023-05-14T05:40:45.093Z,6.10
2023-05-14T05:42:46.785Z,5.75
2023-05-14T05:44:48.451Z,5.95
2023-05-14T05:46:51.067Z,5.78
2023-05-14T05:48:53.301Z,6.53
2023-05-14T05:50:55.333Z,6.38
2023-05-14T05:52:59.093Z,5.43
2023-05-14T05:55:01.060Z,5.97
2023-05-14T05:57:02.687Z,5.63
2023-05-14T05:59:04.422Z,6.22
2023-05-14T06:01:06.532Z,6.50
2023-05-14T06:03:08.145Z,5.93
2023-05-14T06:05:10.463Z,6.03
2023-05-14T06:07:12.356Z,6.32
2023-05-14T06:09:13.934Z,6.25
2023-05-14T06:11:16.822Z,6.20
2023-05-14T06:13:18.477Z,6.22
2023-05-14T06:15:20.134Z,6.07
2023-05-14T06:17:22.025Z,5.90
2023-05-14T06:19:23.577Z,6.30
2023-05-14T06:21:25.352Z,6.10
2023-05-14T06:23:27.055Z,6.38
2023-05-14T06:25:28.630Z,6.20
2023-05-14T06:27:30.346Z,6.65
2023-05-14T06:29:31.843Z,6.60
2023-05-14T06:31:33.795Z,6.60
2023-05-14T06:33:35.547Z,5.70
2023-05-14T06:35:37.183Z,6.30
2023-05-14T06:37:38.725Z,6.38
2023-05-14T06:39:40.533Z,5.82
2023-05-14T06:41:42.116Z,6.45
2023-05-14T06:43:43.967Z,6.35
2023-05-14T06:45:48.976Z,6.60
2023-05-14T06:47:50.743Z,6.30
2023-05-14T06:49:52.444Z,7.25
2023-05-14T06:51:54.205Z,6.15
2023-05-14T06:53:56.251Z,5.95
2023-05-14T06:55:58.017Z,7.00
2023-05-14T06:57:59.726Z,6.10
2023-05-14T07:00:03.159Z,6.03
2023-05-14T07:02:05.439Z,6.70
2023-05-14T07:04:07.203Z,6.65
2023-05-14T07:06:08.846Z,7.05
2023-05-14T07:08:11.162Z,6.25
2023-05-14T07:10:12.792Z,6.55
2023-05-14T07:12:14.409Z,6.68
2023-05-14T07:14:15.998Z,6.43
2023-05-14T07:16:17.551Z,6.65
2023-05-14T07:18:19.261Z,6.90
2023-05-14T07:20:20.906Z,6.85
2023-05-14T07:22:22.510Z,6.63
2023-05-14T07:24:24.198Z,7.38
2023-05-14T07:26:26.347Z,7.05
2023-05-14T07:28:27.890Z,6.93
2023-05-14T07:30:29.417Z,7.00
2023-05-14T07:32:30.944Z,7.57
2023-05-14T07:34:32.513Z,7.90
2023-05-14T07:36:34.274Z,7.45
2023-05-14T07:38:35.920Z,7.30
2023-05-14T07:40:37.522Z,7.35
2023-05-14T07:42:39.148Z,7.35
2023-05-14T07:44:40.711Z,7.57
2023-05-14T07:46:42.629Z,7.72
2023-05-14T07:48:44.488Z,7.65
2023-05-14T07:50:48.131Z,8.15
2023-05-14T07:52:49.732Z,8.27
2023-05-14T07:54:51.813Z,7.63
2023-05-14T07:56:53.555Z,8.52
2023-05-14T07:58:55.333Z,8.05
2023-05-14T08:00:57.594Z,8.30
2023-05-14T08:02:59.419Z,8.75
2023-05-14T08:05:01.479Z,7.90
2023-05-14T08:07:03.137Z,8.68
2023-05-14T08:09:07.318Z,8.52
2023-05-14T08:11:09.167Z,8.07
2023-05-14T08:13:10.944Z,8.32
2023-05-14T08:15:12.618Z,7.78
2023-05-14T08:17:14.759Z,8.70
2023-05-14T08:19:16.993Z,8.48
2023-05-14T08:21:18.709Z,8.57
2023-05-14T08:23:20.508Z,9.23
2023-05-14T08:25:22.087Z,8.70
2023-05-14T08:27:23.742Z,8.85
2023-05-14T08:29:25.976Z,8.38
2023-05-14T08:31:27.659Z,8.55
2023-05-14T08:33:29.357Z,8.20
2023-05-14T08:35:31.060Z,9.23
2023-05-14T08:37:32.724Z,8.93
2023-05-14T08:39:34.285Z,8.95
2023-05-14T08:41:36.303Z,9.18
2023-05-14T08:44:04.568Z,8.52
2023-05-14T08:46:06.994Z,9.23
2023-05-14T08:48:11.059Z,8.18
2023-05-14T08:50:13.074Z,8.95
2023-05-14T08:52:14.777Z,9.18
2023-05-14T08:54:17.732Z,8.50
2023-05-14T08:56:19.636Z,8.82
2023-05-14T08:58:21.290Z,8.43
2023-05-14T09:00:23.489Z,8.45
2023-05-14T09:02:29.385Z,8.65
2023-05-14T09:04:31.469Z,8.80
2023-05-14T09:06:33.340Z,8.07
2023-05-14T09:08:36.280Z,8.15
2023-05-14T09:10:37.803Z,8.27
2023-05-14T09:12:39.373Z,8.52
2023-05-14T09:14:41.359Z,8.77
2023-05-14T09:16:47.574Z,8.68
2023-05-14T09:18:49.302Z,8.57
2023-05-14T09:20:52.122Z,8.25
2023-05-14T09:22:54.799Z,8.50
2023-05-14T09:25:07.310Z,8.48
2023-05-14T09:27:10.325Z,8.05
2023-05-14T09:29:12.120Z,8.70
2023-05-14T09:31:13.710Z,8.38
2023-05-14T09:33:29.001Z,8.65
2023-05-14T09:35:31.103Z,8.75
2023-05-14T09:37:36.420Z,8.23
2023-05-14T09:39:38.173Z,8.10
2023-05-14T09:41:39.817Z,9.30
2023-05-14T09:43:41.417Z,8.63
2023-05-14T09:45:43.128Z,8.50
2023-05-14T09:47:45.346Z,8.63
2023-05-14T09:49:48.987Z,7.95
2023-05-14T09:51:50.809Z,8.13
2023-05-14T09:53:54.213Z,8.07
2023-05-14T09:55:55.799Z,8.80
2023-05-14T09:57:57.420Z,8.40
2023-05-14T09:59:59.221Z,8.40
2023-05-14T10:02:01.000Z,8.77
2023-05-14T10:04:07.763Z,8.70
2023-05-14T10:06:10.560Z,8.40
2023-05-14T10:08:33.459Z,8.48
2023-05-14T10:10:35.402Z,8.38
2023-05-14T10:12:39.172Z,8.23
2023-05-14T10:14:44.346Z,8.70
2023-05-14T10:16:51.091Z,8.65
2023-05-14T10:18:57.630Z,8.27
2023-05-14T10:21:06.736Z,8.50
2023-05-14T10:23:08.399Z,8.25
2023-05-14T10:25:10.694Z,8.93
2023-05-14T10:27:12.491Z,8.43
2023-05-14T10:29:14.369Z,8.25
2023-05-14T10:31:16.120Z,8.52
2023-05-14T10:33:18.744Z,8.23
2023-05-14T10:35:22.854Z,8.30
2023-05-14T10:37:27.835Z,8.45
2023-05-14T10:39:56.054Z,8.40
2023-05-14T10:41:57.652Z,8.40
2023-05-14T10:43:59.549Z,8.40
2023-05-14T10:46:01.195Z,8.80
2023-05-14T10:48:02.793Z,8.48
2023-05-14T10:50:06.630Z,8.68
2023-05-14T10:52:09.396Z,8.18
2023-05-14T10:54:12.340Z,8.10
2023-05-14T10:56:14.583Z,8.25
2023-05-14T10:58:16.349Z,7.95
2023-05-14T11:00:18.237Z,7.88
2023-05-14T11:02:25.347Z,8.32
2023-05-14T11:04:28.198Z,8.63
2023-05-14T11:06:29.952Z,8.48
2023-05-14T11:08:32.623Z,8.63
2023-05-14T11:10:35.640Z,8.25
2023-05-14T11:12:39.592Z,8.05
2023-05-14T11:14:41.730Z,8.23
2023-05-14T11:16:43.657Z,8.18
2023-05-14T11:18:45.721Z,8.38
2023-05-14T11:20:47.262Z,8.35
2023-05-14T11:22:51.496Z,8.00
2023-05-14T11:24:53.461Z,8.32
2023-05-14T11:26:56.401Z,8.05
2023-05-14T11:28:58.167Z,7.88
2023-05-14T11:30:59.934Z,7.63
2023-05-14T11:33:02.300Z,7.82
2023-05-14T11:35:04.875Z,7.10
2023-05-14T11:37:10.189Z,8.10
2023-05-14T11:39:18.142Z,7.50
2023-05-14T11:41:21.615Z,7.35
2023-05-14T11:43:29.305Z,7.70
2023-05-14T11:45:32.973Z,7.65
2023-05-14T11:47:34.615Z,7.80
2023-05-14T11:49:37.806Z,7.75
2023-05-14T11:51:39.447Z,7.68
2023-05-14T11:53:41.180Z,7.78
2023-05-14T11:55:42.833Z,7.43
2023-05-14T11:57:44.634Z,7.20
2023-05-14T11:59:47.451Z,7.47
2023-05-14T12:01:50.696Z,7.15
2023-05-14T12:03:52.733Z,7.18
2023-05-14T12:05:58.929Z,7.72
2023-05-14T12:08:00.783Z,7.47
2023-05-14T12:10:03.587Z,7.53
2023-05-14T12:12:10.326Z,7.57
2023-05-14T12:14:19.539Z,7.47
2023-05-14T12:16:21.581Z,6.88
2023-05-14T12:18:27.357Z,7.32
2023-05-14T12:20:29.595Z,7.18
2023-05-14T12:22:31.493Z,7.72
2023-05-14T12:24:33.167Z,7.55
2023-05-14T12:26:34.848Z,7.03
2023-05-14T12:28:42.981Z,6.75
2023-05-14T12:30:45.835Z,7.10
2023-05-14T12:32:48.958Z,7.35
2023-05-14T12:34:50.624Z,7.20
2023-05-14T12:36:52.292Z,6.80
2023-05-14T12:39:04.040Z,7.18
2023-05-14T12:41:05.639Z,6.90
2023-05-14T12:43:07.487Z,6.80
2023-05-14T12:45:09.316Z,6.75
2023-05-14T12:47:11.118Z,7.30
2023-05-14T12:49:12.804Z,6.78
2023-05-14T12:51:14.583Z,6.90
2023-05-14T12:53:16.478Z,7.20
2023-05-14T12:55:18.098Z,6.68
2023-05-14T12:57:19.707Z,6.43
2023-05-14T12:59:21.264Z,6.63
2023-05-14T13:01:23.625Z,6.65
2023-05-14T13:03:26.473Z,6.90
2023-05-14T13:05:28.168Z,6.45
2023-05-14T13:07:30.405Z,6.38
2023-05-14T13:09:31.932Z,6.40
2023-05-14T13:11:33.546Z,6.05
2023-05-14T13:13:35.156Z,6.35
2023-05-14T13:15:36.865Z,6.15
2023-05-14T13:17:38.587Z,6.32
2023-05-14T13:19:40.230Z,6.20
2023-05-14T13:21:41.800Z,5.53
2023-05-14T13:23:43.455Z,6.28
2023-05-14T13:25:45.804Z,6.30
2023-05-14T13:27:51.064Z,6.15
2023-05-14T13:29:52.808Z,6.18
2023-05-14T13:31:54.357Z,6.22
2023-05-14T13:33:58.060Z,5.57
2023-05-14T13:35:59.681Z,6.28
2023-05-14T13:38:01.265Z,5.80
2023-05-14T13:40:04.426Z,6.70
2023-05-14T13:42:06.297Z,5.93
2023-05-14T13:44:07.939Z,5.63
2023-05-14T13:46:09.943Z,6.20
2023-05-14T13:48:11.641Z,6.30
2023-05-14T13:50:14.053Z,6.00
2023-05-14T13:52:16.252Z,5.88
2023-05-14T13:54:17.967Z,5.90
2023-05-14T13:56:20.132Z,6.00
2023-05-14T13:58:23.748Z,6.25
2023-05-14T14:00:27.139Z,5.55
2023-05-14T14:02:28.730Z,5.57
2023-05-14T14:04:30.692Z,5.57
2023-05-14T14:06:33.194Z,5.97
2023-05-14T14:08:35.123Z,5.90
2023-05-14T14:10:36.760Z,6.00
2023-05-14T14:12:38.348Z,5.55
2023-05-14T14:14:40.368Z,5.90
2023-05-14T14:16:42.129Z,5.70
2023-05-14T14:18:43.868Z,5.50
2023-05-14T14:20:45.646Z,5.32
2023-05-14T14:22:47.294Z,5.40
2023-05-14T14:24:48.813Z,5.68
2023-05-14T14:26:50.353Z,5.47
2023-05-14T14:28:51.888Z,6.00
2023-05-14T14:30:53.584Z,5.47
2023-05-14T14:32:55.335Z,5.50
2023-05-14T14:34:56.890Z,5.60
2023-05-14T14:36:58.537Z,5.57
2023-05-14T14:39:00.403Z,5.43
2023-05-14T14:41:03.183Z,5.40
2023-05-14T14:43:04.813Z,5.80
2023-05-14T14:45:07.316Z,5.95
2023-05-14T14:47:08.878Z,6.00
2023-05-14T14:49:10.632Z,5.90
2023-05-14T14:51:12.444Z,5.57
2023-05-14T14:53:13.955Z,5.43
2023-05-14T14:55:15.664Z,6.15
2023-05-14T14:57:17.325Z,6.45
2023-05-14T14:59:19.054Z,7.00
2023-05-14T15:01:21.390Z,6.35
2023-05-14T15:03:24.265Z,5.80
2023-05-14T15:05:26.254Z,6.18
2023-05-14T15:07:29.584Z,6.20
2023-05-14T15:09:31.452Z,6.13
2023-05-14T15:11:34.463Z,5.82
2023-05-14T15:13:37.188Z,6.00
2023-05-14T15:15:41.591Z,6.05
2023-05-14T15:17:43.271Z,5.82
2023-05-14T15:19:44.882Z,5.63
2023-05-14T15:21:46.504Z,5.57
2023-05-14T15:23:48.027Z,5.13
2023-05-14T15:25:49.970Z,5.47
2023-05-14T15:27:51.815Z,5.53
2023-05-14T15:29:53.601Z,5.32
2023-05-14T15:31:55.403Z,5.20
2023-05-14T15:33:56.984Z,5.68
2023-05-14T15:35:58.539Z,5.60
2023-05-14T15:38:00.075Z,5.45
2023-05-14T15:40:01.792Z,5.43
2023-05-14T15:42:04.169Z,5.10
2023-05-14T15:44:05.870Z,5.10
2023-05-14T15:46:07.507Z,5.30
2023-05-14T15:48:09.203Z,5.15
2023-05-14T15:50:11.313Z,4.75
2023-05-14T15:52:13.805Z,4.93
2023-05-14T15:54:15.461Z,4.90
2023-05-14T15:56:17.051Z,4.90
2023-05-14T15:58:18.771Z,4.75
2023-05-14T16:00:20.910Z,4.75
2023-05-14T16:02:22.616Z,4.60
2023-05-14T16:04:24.113Z,4.50
2023-05-14T16:06:28.643Z,4.68
2023-05-14T16:08:30.273Z,4.70
2023-05-14T16:10:31.896Z,4.43
2023-05-14T16:12:33.807Z,4.25
2023-05-14T16:14:35.607Z,4.28
2023-05-14T16:16:37.406Z,4.30
2023-05-14T16:18:40.185Z,4.13
2023-05-14T16:20:41.803Z,4.40
2023-05-14T16:22:43.482Z,4.50
2023-05-14T16:24:45.065Z,4.00
2023-05-14T16:26:46.678Z,4.53
2023-05-14T16:28:48.194Z,4.38
2023-05-14T16:30:49.726Z,4.30
2023-05-14T16:32:51.533Z,3.83
2023-05-14T16:34:53.299Z,4.43
2023-05-14T16:36:54.931Z,4.22
2023-05-14T16:39:06.757Z,3.85
2023-05-14T16:41:09.781Z,3.90
2023-05-14T16:43:11.597Z,3.70
2023-05-14T16:45:13.415Z,3.90
2023-05-14T16:47:14.949Z,3.90
2023-05-14T16:49:16.856Z,3.78
2023-05-14T16:51:18.527Z,4.18
2023-05-14T16:53:20.438Z,3.65
2023-05-14T16:55:22.096Z,3.60
2023-05-14T16:57:23.816Z,3.50
2023-05-14T16:59:25.644Z,3.78
2023-05-14T17:01:27.262Z,3.65
2023-05-14T17:03:28.853Z,3.78
2023-05-14T17:05:30.520Z,3.80
2023-05-14T17:07:32.112Z,3.53
2023-05-14T17:09:33.768Z,3.47
2023-05-14T17:11:35.636Z,4.03
2023-05-14T17:13:37.211Z,3.53
2023-05-14T17:15:41.707Z,3.35
2023-05-14T17:17:43.252Z,3.50
2023-05-14T17:19:48.350Z,3.38
2023-05-14T17:21:49.946Z,3.70
2023-05-14T17:23:51.559Z,3.75
2023-05-14T17:25:53.235Z,3.50
2023-05-14T17:27:54.866Z,3.53
2023-05-14T17:29:56.541Z,3.40
2023-05-14T17:32:00.560Z,3.35
2023-05-14T17:34:02.335Z,3.28
2023-05-14T17:36:04.393Z,3.30
2023-05-14T17:38:06.189Z,3.15
2023-05-14T17:40:08.988Z,3.28
2023-05-14T17:42:10.945Z,3.80
2023-05-14T17:44:13.262Z,3.20
2023-05-14T17:46:15.202Z,3.30
2023-05-14T17:48:17.244Z,3.10
2023-05-14T17:50:19.470Z,3.65
2023-05-14T17:52:21.450Z,3.47
2023-05-14T17:54:23.005Z,3.35
2023-05-14T17:56:24.613Z,3.38
2023-05-14T17:58:26.188Z,3.30
2023-05-14T18:00:27.807Z,3.33
2023-05-14T18:02:29.524Z,3.63
2023-05-14T18:04:31.200Z,3.60
2023-05-14T18:06:32.759Z,3.42
2023-05-14T18:08:34.338Z,3.63
2023-05-14T18:10:36.237Z,3.33
2023-05-14T18:12:37.904Z,3.67
2023-05-14T18:14:39.445Z,3.75
2023-05-14T18:16:41.176Z,3.53
2023-05-14T18:18:42.945Z,3.47
2023-05-14T18:20:44.551Z,3.33
2023-05-14T18:22:46.159Z,3.47
2023-05-14T18:24:47.817Z,3.58
2023-05-14T18:26:49.443Z,3.40
2023-05-14T18:28:51.469Z,3.97
2023-05-14T18:30:53.011Z,3.80
2023-05-14T18:32:54.680Z,3.92
2023-05-14T18:34:56.320Z,3.70
2023-05-14T18:36:58.426Z,3.20
2023-05-14T18:38:59.979Z,3.40
2023-05-14T18:41:01.588Z,3.75
2023-05-14T18:43:03.174Z,3.30
2023-05-14T18:45:05.053Z,3.50
2023-05-14T18:47:07.115Z,3.50
2023-05-14T18:49:08.934Z,3.70
2023-05-14T18:51:12.227Z,3.55
2023-05-14T18:53:13.845Z,3.80
2023-05-14T18:55:15.594Z,4.10
2023-05-14T18:57:17.188Z,4.45
2023-05-14T18:59:19.019Z,4.28
2023-05-14T19:01:21.350Z,3.90
2023-05-14T19:03:23.157Z,4.03
2023-05-14T19:05:25.136Z,4.10
2023-05-14T19:07:27.728Z,4.47
2023-05-14T19:09:29.582Z,4.05
2023-05-14T19:11:31.310Z,4.07
2023-05-14T19:13:33.087Z,3.85
2023-05-14T19:15:34.750Z,3.80
2023-05-14T19:17:37.506Z,4.10
2023-05-14T19:19:39.474Z,3.65
2023-05-14T19:21:41.105Z,3.88
2023-05-14T19:23:42.736Z,3.95
2023-05-14T19:25:44.782Z,3.63
2023-05-14T19:27:50.875Z,4.03
2023-05-14T19:29:52.517Z,4.10
2023-05-14T19:31:54.454Z,3.90
2023-05-14T19:33:56.150Z,4.25
2023-05-14T19:35:57.794Z,3.90
2023-05-14T19:37:59.485Z,4.10
2023-05-14T19:40:01.292Z,4.30
2023-05-14T19:42:02.848Z,3.95
2023-05-14T19:44:04.380Z,3.90
2023-05-14T19:46:06.528Z,3.92
2023-05-14T19:48:08.944Z,3.50
2023-05-14T19:50:11.178Z,3.60
2023-05-14T19:52:12.898Z,3.80
2023-05-14T19:54:14.658Z,3.67
2023-05-14T19:56:16.575Z,3.53
2023-05-14T19:58:18.266Z,3.60
2023-05-14T20:00:20.106Z,3.80
2023-05-14T20:02:22.774Z,3.42
2023-05-14T20:04:26.072Z,3.47
2023-05-14T20:06:27.810Z,3.97
2023-05-14T20:08:29.441Z,3.90
2023-05-14T20:10:31.183Z,3.58
2023-05-14T20:12:32.757Z,4.03
2023-05-14T20:14:34.350Z,4.03
2023-05-14T20:16:36.923Z,4.00
2023-05-14T20:18:38.488Z,3.55
2023-05-14T20:20:40.025Z,3.58
2023-05-14T20:22:42.807Z,3.97
2023-05-14T20:24:44.532Z,4.07
2023-05-14T20:26:46.123Z,3.92
2023-05-14T20:28:47.648Z,4.18
2023-05-14T20:30:49.205Z,3.65
2023-05-14T20:32:51.276Z,4.00
2023-05-14T20:34:53.247Z,3.38
2023-05-14T20:36:54.778Z,3.97
2023-05-14T20:38:56.581Z,3.63
2023-05-14T20:40:58.352Z,3.67
2023-05-14T20:43:00.051Z,3.60
2023-05-14T20:45:01.579Z,3.33
2023-05-14T20:47:03.277Z,3.60
2023-05-14T20:49:04.893Z,3.85
2023-05-14T20:51:06.472Z,3.95
2023-05-14T20:53:08.198Z,3.67
2023-05-14T20:55:10.011Z,3.42
2023-05-14T20:57:12.398Z,3.55
2023-05-14T20:59:14.068Z,3.72
2023-05-14T21:01:15.792Z,3.63
2023-05-14T21:03:17.892Z,3.88
2023-05-14T21:05:20.721Z,3.70
2023-05-14T21:07:22.341Z,3.50
2023-05-14T21:09:24.011Z,3.67
2023-05-14T21:11:25.624Z,3.75
2023-05-14T21:13:27.153Z,3.63
2023-05-14T21:15:30.640Z,4.00
2023-05-14T21:17:32.456Z,3.45
2023-05-14T21:19:34.064Z,3.33
2023-05-14T21:21:35.644Z,3.55
2023-05-14T21:23:39.425Z,3.25
2023-05-14T21:25:41.092Z,3.65
2023-05-14T21:27:42.620Z,3.65
2023-05-14T21:29:47.599Z,3.58
2023-05-14T21:31:49.361Z,3.90
2023-05-14T21:33:51.268Z,3.65
2023-05-14T21:35:52.923Z,3.60
2023-05-14T21:37:54.466Z,3.50
2023-05-14T21:39:56.172Z,3.33
2023-05-14T21:41:57.740Z,3.70
2023-05-14T21:43:59.349Z,4.18
2023-05-14T21:46:01.155Z,3.63
2023-05-14T21:48:02.935Z,3.78
2023-05-14T21:50:05.129Z,3.72
2023-05-14T21:52:06.708Z,3.47
2023-05-14T21:54:08.279Z,3.38
2023-05-14T21:56:09.916Z,4.00
2023-05-14T21:58:11.579Z,3.60
2023-05-14T22:00:14.040Z,4.25
2023-05-14T22:02:15.706Z,3.65
2023-05-14T22:04:17.554Z,3.28
2023-05-14T22:06:19.445Z,3.72
2023-05-14T22:08:21.479Z,3.50
2023-05-14T22:10:23.113Z,3.63
2023-05-14T22:12:24.739Z,3.53
2023-05-14T22:14:29.365Z,3.60
2023-05-14T22:16:31.150Z,3.80
2023-05-14T22:18:34.137Z,3.58
2023-05-14T22:20:35.869Z,3.90
2023-05-14T22:22:37.840Z,3.85
2023-05-14T22:24:39.405Z,3.40
2023-05-14T22:26:40.987Z,3.55
2023-05-14T22:28:43.584Z,3.80
2023-05-14T22:30:45.153Z,3.75
2023-05-14T22:32:47.379Z,3.70
2023-05-14T22:34:49.228Z,3.95
2023-05-14T22:36:51.064Z,3.50
2023-05-14T22:38:52.673Z,3.65
2023-05-14T22:40:54.317Z,3.55
2023-05-14T22:42:55.932Z,3.60
2023-05-14T22:44:57.492Z,3.47
2023-05-14T22:46:59.678Z,3.70
2023-05-14T22:49:01.308Z,3.60
2023-05-14T22:51:02.954Z,3.88
2023-05-14T22:53:04.510Z,3.47
2023-05-14T22:55:06.701Z,4.00
2023-05-14T22:57:08.263Z,4.35
2023-05-14T22:59:09.930Z,3.78
2023-05-14T23:01:11.717Z,3.83
2023-05-14T23:03:13.315Z,3.72
2023-05-14T23:05:15.032Z,3.70
2023-05-14T23:07:16.806Z,3.72
2023-05-14T23:09:19.019Z,3.95
2023-05-14T23:11:21.462Z,3.85
2023-05-14T23:13:23.271Z,3.90
2023-05-14T23:15:25.320Z,4.20
2023-05-14T23:17:27.215Z,3.70
2023-05-14T23:19:28.903Z,3.40
2023-05-14T23:21:30.534Z,3.70
2023-05-14T23:23:32.220Z,3.38
2023-05-14T23:25:33.777Z,3.50
2023-05-14T23:27:35.521Z,3.63
2023-05-14T23:29:37.070Z,4.05
2023-05-14T23:31:40.958Z,4.00
2023-05-14T23:33:44.519Z,3.83
2023-05-14T23:35:46.052Z,4.05
2023-05-14T23:37:49.521Z,3.80
2023-05-14T23:39:52.831Z,3.97
2023-05-14T23:41:54.410Z,3.75
2023-05-14T23:43:55.945Z,4.00
2023-05-14T23:45:57.822Z,3.78
2023-05-14T23:48:00.935Z,3.92
2023-05-14T23:50:03.071Z,4.10
2023-05-14T23:52:05.205Z,4.00
2023-05-14T23:54:06.767Z,4.22
2023-05-14T23:56:08.947Z,3.88
2023-05-14T23:58:10.477Z,4.45
